Flight Track Log - Related Links

Times and Time Zones

All times are in EDT time to prevent confusion due to time zone crossing. See the LOF3389 flight status page for this flight to view local times or setup timezone preferences in your user account.


Time Position Orientation Groundspeed Altitude Reporting Facility
EDT Latitude Longitude Course Direction KTS MPH feet Rate Location/Type
Thu 10:01:37 PM 41.9500 -88.0000 257° West 181 208 3,700  Level Chicago TRACON
Thu 10:02:31 PM 41.9378 -88.0647 256° West 205 236 5,300 1,810 Climbing Chicago Center
Thu 10:03:33 PM 41.9269 -88.1492 260° West 231 266 7,200 1,951 Climbing Chicago Center
Thu 10:04:00 PM 41.8639 -88.4287 253° West  Level FlightAware Approximate
Thu 10:04:34 PM 41.9078 -88.2472 255° West 250 288 9,300  Level Chicago Center
Thu 10:05:00 PM 41.8337 -88.5598 253° West  Level FlightAware Approximate
Thu 10:05:36 PM 41.8878 -88.3469 255° West 273 314 10,900  Level Chicago Center
Thu 10:06:00 PM 41.8050 -88.6915 255° West  Level FlightAware Approximate
Thu 10:06:38 PM 41.8650 -88.4642 255° West 299 344 12,200  Level Chicago Center
Thu 10:07:00 PM 41.7819 -88.8254 257° West  Level FlightAware Approximate
Thu 10:07:39 PM 41.8428 -88.5786 255° West 315 362 13,700  Level Chicago Center
Thu 10:08:41 PM 41.8197 -88.6958 255° West 322 371 15,000 1,268 Climbing Chicago Center
Thu 10:09:42 PM 41.7947 -88.8239 255° West 329 379 16,300 1,220 Climbing Chicago Center
Thu 10:10:44 PM 41.7792 -88.9422 260° West 331 381 17,500 1,306 Climbing Chicago Center
Thu 10:11:46 PM 41.7633 -89.0647 260° West 335 386 19,000 1,268 Climbing Chicago Center
Thu 10:12:47 PM 41.7447 -89.1833 258° West 333 383 20,100 1,230 Climbing Chicago Center
Thu 10:13:48 PM 41.7033 -89.2925 243° Southwest 327 376 21,500 1,415 Climbing Chicago Center
Thu 10:14:50 PM 41.6631 -89.4014 244° Southwest 326 375 23,000 1,306 Climbing Chicago Center
Thu 10:15:52 PM 41.6239 -89.5069 244° Southwest 321 369 24,200 1,171 Climbing Chicago Center
Thu 10:16:53 PM 41.5847 -89.6150 244° Southwest 320 368 25,400 1,230 Climbing Chicago Center
Thu 10:17:54 PM 41.5364 -89.7419 243° Southwest 319 367 26,700 1,220 Climbing Chicago Center
Thu 10:18:56 PM 41.4939 -89.8450 241° Southwest 319 367 27,900 1,122 Climbing Chicago Center
Thu 10:19:57 PM 41.4525 -89.9461 241° Southwest 316 364 29,000 1,073 Climbing Chicago Center
Thu 10:20:59 PM 41.4111 -90.0453 241° Southwest 313 360 30,100 976 Climbing Chicago Center
Thu 10:22:00 PM 41.3708 -90.1431 241° Southwest 308 354 31,000 878 Climbing Chicago Center
Thu 10:23:02 PM 41.3297 -90.2411 241° Southwest 307 353 31,900 488 Climbing Chicago Center
Thu 10:24:03 PM 41.2875 -90.3425 241° Southwest 308 354 32,000  Climbing Chicago Center
Thu 10:25:04 PM 41.2386 -90.4592 241° Southwest 364 419 31,900 -49 Descending Chicago Center
Thu 10:26:06 PM 41.1775 -90.6022 240° Southwest 373 429 31,900  Level Chicago Center
Thu 10:27:07 PM 41.1242 -90.7275 241° Southwest 390 449 31,900  Level Chicago Center
Thu 10:28:09 PM 41.0683 -90.8586 241° Southwest 407 468 31,900 49 Level Chicago Center
Thu 10:29:10 PM 41.0122 -90.9903 241° Southwest 411 473 32,000 49 Climbing Chicago Center
Thu 10:30:11 PM 40.9542 -91.1244 240° Southwest 418 481 32,000 -49 Level Chicago Center
Thu 10:31:13 PM 40.8964 -91.2586 240° Southwest 419 482 31,900 -49 Descending Chicago Center
Thu 10:32:14 PM 40.8333 -91.4047 240° Southwest 424 488 31,900  Level Chicago Center
Thu 10:33:16 PM 40.7756 -91.5386 240° Southwest 424 488 31,900  Level Chicago Center
Thu 10:34:17 PM 40.7303 -91.6786 247° West 422 486 31,900  Level Chicago Center
Thu 10:35:18 PM 40.6822 -91.8175 246° West 422 486 31,900  Level Chicago Center
Thu 10:36:20 PM 40.6264 -91.9847 246° West 421 484 31,900  Level Chicago Center
Thu 10:37:23 PM 40.5783 -92.1236 246° West 421 484 31,900  Level Kansas City Center
Thu 10:38:23 PM 40.5317 -92.2631 246° West 421 484 31,900  Level Chicago Center
Thu 10:39:24 PM 40.4839 -92.4019 246° West 422 486 31,900 49 Level Chicago Center
Thu 10:40:25 PM 40.4378 -92.5386 246° West 422 486 32,000  Climbing Chicago Center
Thu 10:41:27 PM 40.3806 -92.7044 246° West 427 491 31,900 -49 Descending Chicago Center
Thu 10:42:28 PM 40.3175 -92.8219 235° Southwest 425 489 31,900  Level Kansas City Center
Thu 10:43:32 PM 40.2500 -92.9519 236° Southwest 426 490 31,900  Level Kansas City Center
Thu 10:44:32 PM 40.1811 -93.0847 236° Southwest 428 493 31,900  Level Kansas City Center
Thu 10:45:32 PM 40.1122 -93.2092 234° Southwest 429 494 31,900  Level Kansas City Center
Thu 10:46:34 PM 40.0453 -93.3400 236° Southwest 430 495 31,900  Level Kansas City Center
Thu 10:47:35 PM 39.9633 -93.4922 235° Southwest 431 496 31,900  Level Kansas City Center
Thu 10:48:36 PM 39.8950 -93.6169 234° Southwest 430 495 31,900  Level Kansas City Center
Thu 10:49:39 PM 39.8278 -93.7433 235° Southwest 430 495 31,900  Level Kansas City Center
Thu 10:50:41 PM 39.7578 -93.8733 235° Southwest 430 495 31,900  Level Kansas City Center
Thu 10:51:41 PM 39.6897 -94.0000 235° Southwest 430 495 31,900 50 Level Kansas City Center
Thu 10:52:42 PM 39.6206 -94.1264 235° Southwest 429 494 32,000 49 Climbing Kansas City Center
Thu 10:53:43 PM 39.5519 -94.2531 235° Southwest 430 495 32,000 -48 Level Kansas City Center
Thu 10:54:47 PM 39.4836 -94.3778 235° Southwest 428 493 31,900  Descending Kansas City Center
Thu 10:55:48 PM 39.4011 -94.5275 235° Southwest 428 493 32,000  Climbing Kansas City Center
Thu 10:56:49 PM 39.3328 -94.6531 235° Southwest 427 491 31,900 -49 Descending Kansas City Center
Thu 10:57:50 PM 39.2633 -94.7781 234° Southwest 427 491 31,900  Level Kansas City Center
Thu 10:58:52 PM 39.2014 -94.9131 239° Southwest 435 501 31,900 49 Level Kansas City Center
Thu 10:59:52 PM 39.1386 -95.0447 238° Southwest 430 495 32,000 49 Climbing Kansas City Center
Thu 11:00:55 PM 39.0733 -95.1831 239° Southwest 437 503 32,000  Level Kansas City Center
Thu 11:01:57 PM 39.0086 -95.3192 239° Southwest 432 497 32,000  Level Kansas City Center
Thu 11:02:57 PM 38.9481 -95.4431 238° Southwest 429 494 32,000  Level Kansas City Center
Thu 11:04:00 PM 38.8858 -95.5733 238° Southwest 428 493 32,000 -48 Level Kansas City Center
Thu 11:05:01 PM 38.8231 -95.7033 238° Southwest 428 493 31,900 -50 Descending Kansas City Center
Thu 11:06:01 PM 38.7597 -95.8336 238° Southwest 429 494 31,900  Level Kansas City Center
Thu 11:07:02 PM 38.6972 -95.9619 238° Southwest 429 494 31,900 -97 Level Kansas City Center
Thu 11:08:05 PM 38.6239 -96.1164 239° Southwest 426 490 31,700 -1,008 Descending Kansas City Center
Thu 11:09:07 PM 38.5578 -96.2458 237° Southwest 434 499 29,800 -1,902 Descending Kansas City Center
Thu 11:10:08 PM 38.4950 -96.3739 238° Southwest 428 493 27,800 -1,820 Descending Kansas City Center
Thu 11:11:09 PM 38.4378 -96.4875 237° Southwest 426 490 26,100 -1,984 Descending Kansas City Center
Thu 11:12:12 PM 38.3617 -96.6439 238° Southwest 429 494 23,700 -2,165 Descending Kansas City Center
Thu 11:12:46 PM 38.3183 -96.7244 236° Southwest 437 503 22,600 -1,869 Descending Kansas City Center
Thu 11:13:13 PM 38.2958 -96.7750 240° Southwest 437 503 21,800 -1,975 Descending Kansas City Center
Thu 11:14:05 PM 38.2347 -96.8928 237° Southwest 430 495 20,000 -1,947 Descending Kansas City Center
Thu 11:15:07 PM 38.1667 -97.0106 234° Southwest 410 472 18,100 -1,902 Descending Kansas City Center
Thu 11:16:08 PM 38.0908 -97.1131 227° Southwest 405 466 16,100 -1,859 Descending Kansas City Center
Thu 11:16:18 PM 38.0861 -97.1200 229° Southwest 405 466 15,900 -2,542 Descending Kansas City Center
Thu 11:17:07 PM 38.0178 -97.2044 224° Southwest 360 414 13,600 -2,459 Descending Kansas City Center
Thu 11:17:19 PM 38.0128 -97.2125 232° Southwest 374 430 13,400 -2,282 Descending Kansas City Center
Thu 11:18:18 PM 37.9461 -97.2878 222° Southwest 326 375 10,900 -2,341 Descending Kansas City Center
Thu 11:19:22 PM 37.8647 -97.3258 200° South 309 356 8,600 -3,161 Descending Kansas City Center
Thu 11:20:10 PM 37.7994 -97.3556 200° South 244 281 5,000 -3,639 Descending Kansas City Center
Thu 11:20:23 PM 37.7983 -97.3567 218° Southwest 258 297 4,900 -2,300 Descending Kansas City Center
Thu 11:21:10 PM 37.7408 -97.3806 198° South 207 238 2,700 -2,226 Descending Kansas City Center
Thu 11:21:25 PM 37.7419 -97.3806 360° North 219 252 2,600 -492 Descending Kansas City Center
Thu 11:22:11 PM 37.7028 -97.3997 201° Southwest 130 150 2,200 -590 Descending Kansas City Center
Thu 11:22:26 PM 37.6944 -97.4028 196° South 173 199 2,000 -689 Descending Kansas City Center
Thu 11:23:12 PM 37.6686 -97.4156 201° Southwest 125 144 1,500 -590 Descending Kansas City Center
Thu 11:23:27 PM 37.6675 -97.4153 169° South 152 175 1,400 -400 Descending Kansas City Center

Login

Don't have an account? Register now (free) for customized features, flight alerts, and more!